This is the latest recevied weather packets stored in our database for station/object K0TNT-10. If no packets are shown the sender has not sent any weather packets the latest 10 day(s).
| Time | Temp. | Humidity | Pressure | Rain* | Wind** | Luminosity | Snow |
|---|---|---|---|---|---|---|---|
| 1777709745 | 4.44° C | 74% | 1021.3 hPa | 0 mm | - | - | - |
| 1777707957 | 5° C | 73% | 1021.4 hPa | 0 mm | - | - | - |
| 1777707914 | 5° C | 73% | 1021.4 hPa | 0 mm | - | - | - |
| 1777707040 | 5° C | 72% | 1021.3 hPa | 0 mm | - | - | - |
| 1777706126 | 5° C | 72% | 1021.3 hPa | 0 mm | - | - | - |
| 1777704324 | 5.56° C | 66% | 1021.2 hPa | 0 mm | - | - | - |
| 1777701646 | 6.11° C | 64% | 1020.9 hPa | 0 mm | - | - | - |
| 1777695326 | 9.44° C | 54% | 1020.3 hPa | 0 mm | - | - | - |
| 1777694468 | 9.44° C | 54% | 1020.1 hPa | 0 mm | - | - | - |
| 1777692651 | 10.56° C | 52% | 1020.1 hPa | 0 mm | - | - | - |
| 1777689039 | 12.22° C | 48% | 1019.1 hPa | 0 mm | - | - | - |
| 1777682735 | 17.22° C | 34% | 1017.5 hPa | 0 mm | - | - | - |
| 1777673753 | 20° C | 29% | 1017 hPa | 0 mm | - | - | - |
| 1777671039 | 20° C | 35% | 1017 hPa | 0 mm | - | - | - |
| 1777669232 | 19.44° C | 35% | 1017.5 hPa | 0 mm | - | - | - |
| 1777666521 | 19.44° C | 36% | 1018.2 hPa | 0 mm | - | - | - |
| 1777663843 | 18.89° C | 39% | 1018.7 hPa | 0 mm | - | - | - |
| 1777662914 | 18.89° C | 40% | 1018.8 hPa | 0 mm | - | - | - |
| 1777660213 | 18.33° C | 38% | 1018.9 hPa | 0 mm | - | - | - |
| 1777657515 | 18.33° C | 37% | 1019.1 hPa | 0 mm | - | - | - |
| 1777648554 | 13.89° C | 48% | 1019.7 hPa | 0 mm | - | - | - |
| 1777635049 | 3.33° C | 94% | 1019.4 hPa | 0 mm | - | - | - |
| 1777634124 | 3.33° C | 93% | 1019.6 hPa | 0 mm | - | - | - |
| 1777629609 | 3.89° C | 92% | 1019.9 hPa | 0 mm | - | - | - |
| 1777628718 | 3.89° C | 92% | 1019.7 hPa | 0 mm | - | - | - |
* Rain latest hour (hover to see other rain measurements)
** Current wind speed in m/s (hover to see current wind gust speed)